LRI297 LFSB-EDDM
Flight info
| Callsign | LRI297 |
|---|---|
| Flight time | N/A |
| Altitude | 23000 |
| Route | ELBEG Y715 AMRUP N491 TRA DCT NUNRI/N0366F190 T103 BETOS BETOS1B |
| Aircraft | A20N/M-SDE2E3FGHIRWXY/LB1 |
Departure
| Time | 2026-05-06 16:48 |
|---|---|
| Airport | EuroAirport Basel–Mulhouse–Freiburg (LFSB) |
Arrival
| Time | N/A |
|---|---|
| Airport | Munich Airport (EDDM) |
| Time | Latitude | Longitude | Altitude | Speed | Heading |
|---|---|---|---|---|---|
| 2026-05-06 16:48 | 47.54280 | 7.50640 | 3796 ft | 221 kts | 288° |
| 2026-05-06 16:48 | 47.55296 | 7.48815 | 4383 ft | 235 kts | 330° |
| 2026-05-06 16:48 | 47.56880 | 7.48190 | 5192 ft | 238 kts | 348° |
| 2026-05-06 16:48 | 47.58528 | 7.47856 | 5953 ft | 241 kts | 348° |
| 2026-05-06 16:49 | 47.60210 | 7.47508 | 6585 ft | 244 kts | 347° |
| 2026-05-06 16:49 | 47.61925 | 7.47127 | 7114 ft | 249 kts | 347° |
| 2026-05-06 16:49 | 47.63666 | 7.46858 | 7907 ft | 254 kts | 1° |
| 2026-05-06 16:49 | 47.65373 | 7.47780 | 8664 ft | 263 kts | 36° |
| 2026-05-06 16:50 | 47.66523 | 7.49919 | 9255 ft | 275 kts | 69° |
| 2026-05-06 16:50 | 47.66951 | 7.52756 | 9687 ft | 291 kts | 81° |
| 2026-05-06 16:50 | 47.67274 | 7.55798 | 10145 ft | 307 kts | 81° |
| 2026-05-06 16:50 | 47.67658 | 7.59040 | 10567 ft | 325 kts | 80° |
| 2026-05-06 16:51 | 47.68102 | 7.62572 | 10952 ft | 344 kts | 79° |
| 2026-05-06 16:51 | 47.68594 | 7.66377 | 11319 ft | 362 kts | 80° |
| 2026-05-06 16:51 | 47.69103 | 7.70284 | 11899 ft | 373 kts | 79° |
| 2026-05-06 16:51 | 47.69701 | 7.74155 | 12643 ft | 376 kts | 76° |
| 2026-05-06 16:52 | 47.70483 | 7.77970 | 13459 ft | 378 kts | 71° |
| 2026-05-06 16:52 | 47.71388 | 7.81658 | 14207 ft | 381 kts | 71° |
| 2026-05-06 16:52 | 47.72349 | 7.85447 | 14944 ft | 383 kts | 70° |
| 2026-05-06 16:52 | 47.73308 | 7.89230 | 15628 ft | 386 kts | 70° |
| 2026-05-06 16:53 | 47.74282 | 7.93080 | 16317 ft | 389 kts | 70° |
| 2026-05-06 16:53 | 47.75251 | 7.96959 | 16998 ft | 391 kts | 70° |
| 2026-05-06 16:53 | 47.76259 | 8.00973 | 17683 ft | 394 kts | 71° |
| 2026-05-06 16:53 | 47.77140 | 8.05055 | 18318 ft | 395 kts | 81° |
| 2026-05-06 16:54 | 47.77260 | 8.09224 | 18960 ft | 394 kts | 98° |
| 2026-05-06 16:54 | 47.76604 | 8.13286 | 19616 ft | 392 kts | 111° |
| 2026-05-06 16:54 | 47.75615 | 8.17235 | 20236 ft | 395 kts | 112° |
| 2026-05-06 16:54 | 47.74557 | 8.21372 | 20836 ft | 398 kts | 112° |
| 2026-05-06 16:55 | 47.73566 | 8.25278 | 21388 ft | 401 kts | 112° |
| 2026-05-06 16:55 | 47.72555 | 8.29299 | 21929 ft | 404 kts | 111° |
| 2026-05-06 16:55 | 47.71568 | 8.33234 | 22470 ft | 406 kts | 111° |
| 2026-05-06 16:55 | 47.70556 | 8.37281 | 22810 ft | 407 kts | 110° |
| 2026-05-06 16:56 | 47.69662 | 8.41310 | 22860 ft | 408 kts | 107° |
| 2026-05-06 16:56 | 47.68968 | 8.45429 | 22859 ft | 408 kts | 103° |
| 2026-05-06 16:56 | 47.68479 | 8.49652 | 22861 ft | 410 kts | 99° |
| 2026-05-06 16:56 | 47.68125 | 8.53917 | 22856 ft | 410 kts | 98° |
| 2026-05-06 16:57 | 47.67788 | 8.58185 | 22855 ft | 411 kts | 99° |
| 2026-05-06 16:57 | 47.67450 | 8.62435 | 22858 ft | 411 kts | 99° |
| 2026-05-06 16:57 | 47.67107 | 8.66697 | 22857 ft | 411 kts | 99° |
| 2026-05-06 16:57 | 47.66765 | 8.70945 | 22855 ft | 411 kts | 99° |
| 2026-05-06 16:58 | 47.66421 | 8.75166 | 22863 ft | 412 kts | 99° |
| 2026-05-06 16:58 | 47.66073 | 8.79411 | 22860 ft | 412 kts | 100° |
| 2026-05-06 16:58 | 47.65720 | 8.83699 | 22858 ft | 412 kts | 100° |
| 2026-05-06 16:58 | 47.65369 | 8.87939 | 22840 ft | 412 kts | 100° |
| 2026-05-06 16:59 | 47.65013 | 8.92226 | 22862 ft | 413 kts | 100° |
| 2026-05-06 16:59 | 47.64655 | 8.96500 | 22864 ft | 413 kts | 100° |
| 2026-05-06 16:59 | 47.64297 | 9.00763 | 22859 ft | 413 kts | 100° |
| 2026-05-06 16:59 | 47.63938 | 9.05006 | 22850 ft | 414 kts | 100° |
| 2026-05-06 17:00 | 47.63573 | 9.09302 | 22865 ft | 414 kts | 100° |
| 2026-05-06 17:00 | 47.63203 | 9.13642 | 22862 ft | 415 kts | 100° |
| 2026-05-06 17:00 | 47.62839 | 9.17898 | 22859 ft | 415 kts | 100° |
| 2026-05-06 17:00 | 47.62474 | 9.22157 | 22861 ft | 416 kts | 101° |
| 2026-05-06 17:01 | 47.62098 | 9.26500 | 22857 ft | 416 kts | 100° |
| 2026-05-06 17:01 | 47.61726 | 9.30792 | 22847 ft | 417 kts | 101° |
| 2026-05-06 17:01 | 47.61352 | 9.35074 | 22845 ft | 417 kts | 101° |
| 2026-05-06 17:01 | 47.60970 | 9.39428 | 22845 ft | 417 kts | 100° |
| 2026-05-06 17:02 | 47.60592 | 9.43730 | 22841 ft | 417 kts | 101° |
| 2026-05-06 17:02 | 47.60196 | 9.48220 | 22845 ft | 418 kts | 101° |
| 2026-05-06 17:02 | 47.59814 | 9.52511 | 22847 ft | 418 kts | 101° |
| 2026-05-06 17:02 | 47.59412 | 9.57018 | 22842 ft | 419 kts | 101° |
| 2026-05-06 17:03 | 47.59024 | 9.61348 | 22840 ft | 420 kts | 101° |
| 2026-05-06 17:03 | 47.58684 | 9.65699 | 22849 ft | 423 kts | 99° |
| 2026-05-06 17:03 | 47.58477 | 9.70106 | 22837 ft | 424 kts | 97° |
| 2026-05-06 17:03 | 47.58301 | 9.74559 | 22834 ft | 426 kts | 97° |
| 2026-05-06 17:04 | 47.58126 | 9.79021 | 22832 ft | 426 kts | 97° |
| 2026-05-06 17:04 | 47.57953 | 9.83446 | 22836 ft | 427 kts | 97° |
| 2026-05-06 17:04 | 47.57771 | 9.87949 | 22826 ft | 427 kts | 97° |
| 2026-05-06 17:04 | 47.57587 | 9.92476 | 22810 ft | 428 kts | 98° |